Mehrabad International Airport
OIII : now visible

Airfield :











YOU CAN JOIN US ON...

 
LOGIN :

Register | Disclaimer

   EN    FR    IT 

 









Legend :    VFR   Marginal VFR   IFR   Intensive IFR   Very Intensive IFR
Visi :
Ceiling :
>= 8 km
>= 3000ft
5 to 8 km
1000 to 3000 ft
1500m to 5 km
500 to 1000 ft
800 to 1500m
200 to 500 ft
< 800m
< 200 ft
Symbols :   Thunderstorms  Fog  Heavy snow  Heavy precipitations  Wind > 20 kt






- Airport Elevation : 3962 ft
- IATA code : THR


OIII - Mehrabad International

CURRENT METAR :
  • 140700Z 15004KT 4000 2000SE HZ NSC 09/01 Q1022 A3019 NOSIG

EXPIRED METARs :
  • 140630Z 00000KT 4000 2000SE HZ NSC 08/01 Q1022 A3020
  • 140600Z 00000KT 3000 HZ NSC 08/01 Q1022 A3020 NOSIG
  • 140530Z 00000KT 3000 HZ NSC 07/01 Q1022 A3020
  • 140500Z 00000KT 3000 HZ NSC 06/01 Q1022 A3019 NOSIG
  • 140430Z 31004KT 3000 HZ NSC 05/00 Q1021 A3017

TAF TAF OIII
Valid from the 14 at 06:00 until the 15 at 12:00 UTC


140545Z 1406/1512 24006KT 3000 HZ NSC
BECMG 1408/1409 5000 HZ
BECMG 1418/1420 3000 HZ
BECMG 1500/1501 2000 BR
BECMG 1503/1505 3000 HZ



MET'MAP, your aeronautical weather chart ! - Copyright ORBIFLY December 2007 - Disclaimer

ORBIFLY MET'MAP TEAM :

Programming & Development : Alexandra Zaïnal
Concept & original design : Baudouin d'Aumeries
Assistance for programming : Marc-Olivier Méhu
Technical & hardware support : Manuel Goepfert

Contact : metmap@orbifly.com




SOURCES & CREDITS :

   NOAA       Earth
Advisory